createdAt,value
2022-11-06T00:00:21.834Z,12.30
2022-11-06T00:05:42.170Z,12.61
2022-11-06T00:10:44.354Z,12.35
2022-11-06T00:15:46.247Z,12.62
2022-11-06T00:20:48.157Z,12.16
2022-11-06T00:25:53.339Z,12.44
2022-11-06T00:31:05.152Z,12.57
2022-11-06T00:36:09.735Z,12.26
2022-11-06T00:41:14.114Z,11.98
2022-11-06T00:46:16.567Z,12.34
2022-11-06T00:51:21.836Z,12.29
2022-11-06T00:56:24.509Z,12.37
2022-11-06T01:01:29.364Z,11.25
2022-11-06T01:06:33.734Z,11.16
2022-11-06T01:12:11.704Z,10.95
2022-11-06T01:17:06.660Z,11.07
2022-11-06T01:22:09.035Z,10.99
2022-11-06T01:27:27.386Z,11.41
2022-11-06T01:32:29.690Z,11.57
2022-11-06T01:37:31.670Z,11.64
2022-11-06T01:42:33.598Z,11.52
2022-11-06T01:47:35.620Z,11.53
2022-11-06T01:52:38.399Z,11.61
2022-11-06T01:57:47.842Z,11.33
2022-11-06T02:03:04.127Z,11.60
2022-11-06T02:08:07.987Z,11.82
2022-11-06T02:13:28.775Z,11.89
2022-11-06T02:18:50.677Z,11.88
2022-11-06T02:24:24.920Z,11.86
2022-11-06T02:29:38.517Z,11.48
2022-11-06T02:34:43.394Z,11.64
2022-11-06T02:39:47.106Z,11.02
2022-11-06T02:44:50.404Z,11.38
2022-11-06T02:50:00.217Z,11.42
2022-11-06T02:55:29.091Z,11.13
2022-11-06T03:00:33.740Z,11.22
2022-11-06T03:05:54.804Z,11.31
2022-11-06T03:11:20.906Z,11.25
2022-11-06T03:16:40.839Z,11.02
2022-11-06T03:22:09.535Z,11.12
2022-11-06T03:27:22.197Z,11.30
2022-11-06T03:32:48.974Z,11.20
2022-11-06T03:38:08.221Z,11.39
2022-11-06T03:43:14.490Z,10.84
2022-11-06T03:48:32.430Z,11.00
2022-11-06T03:53:37.930Z,10.89
2022-11-06T03:58:45.109Z,10.81
2022-11-06T04:04:01.964Z,10.67
2022-11-06T04:09:25.599Z,10.92
2022-11-06T04:14:31.029Z,10.71
2022-11-06T04:19:33.077Z,10.34
2022-11-06T04:24:59.992Z,10.68
2022-11-06T04:30:13.950Z,10.62
2022-11-06T04:35:39.996Z,10.03
2022-11-06T04:41:03.667Z,10.08
2022-11-06T04:46:08.315Z,10.35
2022-11-06T04:51:11.982Z,9.84
2022-11-06T04:56:25.540Z,9.94
2022-11-06T05:01:27.824Z,10.27
2022-11-06T05:06:30.411Z,10.21
2022-11-06T05:11:32.594Z,10.41
2022-11-06T05:16:34.916Z,10.12
2022-11-06T05:21:55.250Z,10.31
2022-11-06T05:26:59.575Z,10.24
2022-11-06T05:32:01.944Z,10.38
2022-11-06T05:37:03.975Z,10.39
2022-11-06T05:42:05.874Z,10.33
2022-11-06T05:47:07.912Z,10.38
2022-11-06T05:52:10.120Z,10.60
2022-11-06T05:57:12.319Z,10.73
2022-11-06T06:02:14.371Z,10.72
2022-11-06T06:07:16.339Z,10.36
2022-11-06T06:12:18.583Z,10.74
2022-11-06T06:17:21.072Z,11.08
2022-11-06T06:22:22.951Z,10.50
2022-11-06T06:27:27.544Z,9.98
2022-11-06T06:32:29.472Z,10.08
2022-11-06T06:37:31.405Z,9.38
2022-11-06T06:42:33.349Z,10.43
2022-11-06T06:47:35.261Z,11.00
2022-11-06T06:52:37.198Z,11.41
2022-11-06T06:57:39.145Z,10.78
2022-11-06T07:02:41.023Z,10.80
2022-11-06T07:07:43.197Z,11.42
2022-11-06T07:12:51.683Z,11.09
2022-11-06T07:18:07.845Z,11.20
2022-11-06T07:23:10.002Z,11.75
2022-11-06T07:28:11.913Z,11.83
2022-11-06T07:33:14.028Z,12.00
2022-11-06T07:38:16.254Z,12.23
2022-11-06T07:43:18.426Z,11.71
2022-11-06T07:48:20.543Z,11.60
2022-11-06T07:53:23.128Z,11.94
2022-11-06T07:58:26.094Z,12.13
2022-11-06T08:03:31.292Z,12.08
2022-11-06T08:08:33.402Z,12.42
2022-11-06T08:13:35.886Z,12.49
2022-11-06T08:18:38.596Z,12.44
2022-11-06T08:23:40.690Z,12.38
2022-11-06T08:28:42.774Z,12.64
2022-11-06T08:33:44.690Z,13.00
2022-11-06T08:38:49.740Z,13.02
2022-11-06T08:43:52.550Z,12.61
2022-11-06T08:48:54.521Z,12.64
2022-11-06T08:53:58.054Z,12.66
2022-11-06T08:59:00.209Z,12.79
2022-11-06T09:04:02.233Z,13.10
2022-11-06T09:09:04.262Z,13.22
2022-11-06T09:14:12.645Z,12.97
2022-11-06T09:19:14.647Z,13.52
2022-11-06T09:24:16.792Z,13.65
2022-11-06T09:29:18.743Z,13.68
2022-11-06T09:34:20.684Z,14.05
2022-11-06T09:39:22.598Z,13.52
2022-11-06T09:44:49.647Z,13.75
2022-11-06T09:49:56.568Z,13.80
2022-11-06T09:55:10.348Z,14.19
2022-11-06T10:00:15.556Z,14.17
2022-11-06T10:05:30.749Z,14.33
2022-11-06T10:10:38.601Z,14.01
2022-11-06T10:15:50.759Z,13.49
2022-11-06T10:20:54.648Z,13.54
2022-11-06T10:26:17.117Z,13.56
2022-11-06T10:31:45.138Z,13.86
2022-11-06T10:36:59.480Z,13.73
2022-11-06T10:42:16.279Z,13.38
2022-11-06T10:47:30.071Z,12.94
2022-11-06T10:52:50.636Z,12.43
2022-11-06T10:57:56.952Z,12.80
2022-11-06T11:03:01.995Z,12.72
2022-11-06T11:08:04.125Z,12.25
2022-11-06T11:13:08.665Z,12.59
2022-11-06T11:18:18.660Z,12.45
2022-11-06T11:23:25.018Z,12.72
2022-11-06T11:28:34.449Z,12.70
2022-11-06T11:33:38.542Z,13.02
2022-11-06T11:38:42.002Z,12.95
2022-11-06T11:43:44.019Z,12.75
2022-11-06T11:48:55.889Z,12.78
2022-11-06T11:54:11.352Z,12.48
2022-11-06T11:59:27.794Z,12.42
2022-11-06T12:04:32.313Z,12.33
2022-11-06T12:09:42.892Z,12.25
2022-11-06T12:14:44.781Z,12.35
2022-11-06T12:19:53.388Z,12.40
2022-11-06T12:25:10.047Z,12.29
2022-11-06T12:30:16.378Z,12.25
2022-11-06T12:35:30.987Z,12.26
2022-11-06T12:40:39.690Z,12.08
2022-11-06T12:45:54.996Z,11.85
2022-11-06T12:51:25.606Z,11.88
2022-11-06T12:56:48.942Z,11.75
2022-11-06T13:02:03.000Z,11.64
2022-11-06T13:07:46.920Z,11.62
2022-11-06T13:13:19.277Z,11.26
2022-11-06T13:18:30.284Z,11.33
2022-11-06T13:23:51.126Z,11.36
2022-11-06T13:28:57.112Z,11.25
2022-11-06T13:34:02.948Z,11.16
2022-11-06T13:39:35.858Z,11.18
2022-11-06T13:44:37.975Z,11.81
2022-11-06T13:50:00.913Z,11.10
2022-11-06T13:55:24.155Z,10.95
2022-11-06T14:00:44.320Z,10.87
2022-11-06T14:05:53.295Z,10.99
2022-11-06T14:11:11.776Z,11.92
2022-11-06T14:16:14.135Z,10.79
2022-11-06T14:21:38.104Z,10.54
2022-11-06T14:26:44.138Z,10.53
2022-11-06T14:32:10.268Z,10.33
2022-11-06T14:37:18.354Z,10.21
2022-11-06T14:42:29.719Z,10.03
2022-11-06T14:47:36.243Z,9.83
2022-11-06T14:52:48.394Z,9.76
2022-11-06T14:57:53.289Z,9.62
2022-11-06T15:02:55.251Z,9.50
2022-11-06T15:08:04.902Z,9.36
2022-11-06T15:13:17.931Z,9.22
2022-11-06T15:18:23.025Z,9.10
2022-11-06T15:24:10.237Z,8.98
2022-11-06T15:29:26.475Z,8.85
2022-11-06T15:34:36.561Z,8.73
2022-11-06T15:40:00.273Z,8.76
2022-11-06T15:45:06.729Z,8.72
2022-11-06T15:50:19.963Z,8.67
2022-11-06T15:55:36.275Z,8.60
2022-11-06T16:00:42.293Z,8.48
2022-11-06T16:05:45.870Z,8.47
2022-11-06T16:10:50.870Z,8.39
2022-11-06T16:16:01.248Z,8.32
2022-11-06T16:21:13.407Z,8.29
2022-11-06T16:26:38.250Z,8.26
2022-11-06T16:31:40.204Z,8.28
2022-11-06T16:37:03.590Z,8.23
2022-11-06T16:42:16.755Z,8.22
2022-11-06T16:47:22.928Z,8.19
2022-11-06T16:52:33.615Z,8.11
2022-11-06T16:57:43.212Z,7.97
2022-11-06T17:02:55.645Z,7.96
2022-11-06T17:08:16.362Z,7.93
2022-11-06T17:13:22.036Z,7.93
2022-11-06T17:18:38.039Z,7.87
2022-11-06T17:23:41.063Z,7.89
2022-11-06T17:28:42.935Z,7.97
2022-11-06T17:33:51.242Z,7.96
2022-11-06T17:38:57.612Z,7.92
2022-11-06T17:44:04.281Z,7.89
2022-11-06T17:49:06.995Z,7.78
2022-11-06T17:54:09.873Z,7.70
2022-11-06T17:59:13.310Z,7.67
2022-11-06T18:04:15.233Z,7.57
2022-11-06T18:09:17.088Z,7.45
2022-11-06T18:14:20.600Z,7.38
2022-11-06T18:19:24.277Z,7.35
2022-11-06T18:24:26.363Z,7.45
2022-11-06T18:29:28.248Z,7.69
2022-11-06T18:34:30.171Z,7.82
2022-11-06T18:39:32.412Z,8.00
2022-11-06T18:44:41.619Z,7.60
2022-11-06T18:49:43.496Z,7.53
2022-11-06T18:54:45.447Z,7.48
2022-11-06T18:59:47.306Z,7.46
2022-11-06T19:04:49.209Z,7.42
2022-11-06T19:09:51.152Z,7.40
2022-11-06T19:14:53.100Z,7.29
2022-11-06T19:19:55.010Z,7.34
2022-11-06T19:24:56.985Z,7.24
2022-11-06T19:30:00.469Z,7.17
2022-11-06T19:35:02.570Z,7.12
2022-11-06T19:40:06.353Z,7.07
2022-11-06T19:45:09.167Z,6.97
2022-11-06T19:50:11.124Z,7.00
2022-11-06T19:55:25.688Z,6.93
2022-11-06T20:00:29.046Z,6.82
2022-11-06T20:05:31.221Z,6.75
2022-11-06T20:10:35.135Z,6.74
2022-11-06T20:15:37.120Z,6.71
2022-11-06T20:20:38.966Z,6.66
2022-11-06T20:25:40.938Z,6.66
2022-11-06T20:30:42.811Z,6.49
2022-11-06T20:35:45.142Z,6.46
2022-11-06T20:40:46.988Z,6.40
2022-11-06T20:45:49.369Z,6.33
2022-11-06T20:51:06.391Z,6.35
2022-11-06T20:56:12.450Z,6.33
2022-11-06T21:01:18.152Z,6.37
2022-11-06T21:06:21.696Z,6.28
2022-11-06T21:11:25.081Z,6.31
2022-11-06T21:16:32.836Z,6.24
2022-11-06T21:21:37.480Z,6.21
2022-11-06T21:26:40.097Z,6.13
2022-11-06T21:31:48.599Z,6.12
2022-11-06T21:36:51.453Z,6.08
2022-11-06T21:41:53.367Z,6.06
2022-11-06T21:46:55.560Z,6.04
2022-11-06T21:52:17.351Z,5.98
2022-11-06T21:57:19.240Z,5.97
2022-11-06T22:02:21.324Z,5.93
2022-11-06T22:07:23.275Z,5.89
2022-11-06T22:12:25.183Z,5.77
2022-11-06T22:17:27.264Z,5.79
2022-11-06T22:22:29.613Z,5.84
2022-11-06T22:27:31.634Z,5.77
2022-11-06T22:32:33.468Z,5.70
2022-11-06T22:37:35.419Z,5.69
2022-11-06T22:42:37.251Z,5.79
2022-11-06T22:47:39.992Z,5.79
2022-11-06T22:52:41.916Z,5.79
2022-11-06T22:57:43.750Z,5.72
2022-11-06T23:02:45.695Z,5.84
2022-11-06T23:07:47.660Z,5.87
2022-11-06T23:12:49.575Z,5.99
2022-11-06T23:17:52.623Z,6.13
2022-11-06T23:22:54.707Z,6.28
2022-11-06T23:27:58.330Z,6.55
2022-11-06T23:33:00.196Z,6.79
2022-11-06T23:38:02.410Z,6.98
2022-11-06T23:43:04.282Z,7.15
2022-11-06T23:48:12.741Z,7.28
2022-11-06T23:53:16.477Z,7.50
2022-11-06T23:58:18.755Z,7.76
